Huvudsida
METAR-TAF:

METAR-TAF

Flygplatser :

Sandane flygplats. Anda

Sandane, Norge

latitud: 61-50N, longitud: 006-07E, höjd: 6 m

Aktuellt väderrapport

Denna rapport gjordes för 21 minuter sedan, klockan 09:20 UTC
Vind 3 kt varierande vindriktning
Temperatur 2°C
Fuktighet 80%
Tryck 1031 hPa
Sikt 10 km eller mer
Få moln på en höjd av 3800 ft
Brutna moln på en höjd av 5300 ft

METAR: ENSD 220920Z VRB03KT 9999 FEW038 BKN053 02/M01 Q1031 RMK WIND 1138FT 22003KT

Tid: 10:41 (09:41 UTC)


TAF: saknas

Aktuella väderrapporter och prognoser från 4000 flygplatser (METAR- och TAF-rapporter).

De tillgängliga stationerna syns som gula och röda prickar på kartan.

För musen över prickarna för att se namnen på stationerna.

Klicka sedan för att få väderrapporter och prognoser.

För att ändra kartan: Klicka på de gröna knapparna med ett svart kors på för att zooma in; den gröna knappen med ett streck på för att zooma ut; eller på de gröna pilarna för angränsande kartor.


METAR-TAF: